createdAt,value
2023-08-17T00:00:32.645Z,3.20
2023-08-17T00:02:59.181Z,3.10
2023-08-17T00:05:25.735Z,2.90
2023-08-17T00:07:53.339Z,3.08
2023-08-17T00:10:20.064Z,3.22
2023-08-17T00:12:46.535Z,2.85
2023-08-17T00:15:13.087Z,2.83
2023-08-17T00:17:39.592Z,2.35
2023-08-17T00:20:07.520Z,2.35
2023-08-17T00:22:34.021Z,2.55
2023-08-17T00:25:00.614Z,2.60
2023-08-17T00:27:27.331Z,2.97
2023-08-17T00:29:54.026Z,2.70
2023-08-17T00:32:21.139Z,3.17
2023-08-17T00:34:47.710Z,2.67
2023-08-17T00:37:14.319Z,3.10
2023-08-17T00:39:40.797Z,3.33
2023-08-17T00:42:09.238Z,2.95
2023-08-17T00:44:35.715Z,2.67
2023-08-17T00:47:03.459Z,3.25
2023-08-17T00:49:30.471Z,2.78
2023-08-17T00:51:57.963Z,2.40
2023-08-17T00:54:27.939Z,2.47
2023-08-17T00:56:57.263Z,2.35
2023-08-17T00:59:26.435Z,2.40
2023-08-17T01:01:53.275Z,1.80
2023-08-17T01:04:19.903Z,2.28
2023-08-17T01:06:46.576Z,2.60
2023-08-17T01:09:13.191Z,3.10
2023-08-17T01:11:50.514Z,3.30
2023-08-17T01:14:33.961Z,3.13
2023-08-17T01:17:13.699Z,4.22
2023-08-17T01:19:40.386Z,3.42
2023-08-17T01:22:09.692Z,3.55
2023-08-17T01:24:36.195Z,3.30
2023-08-17T01:27:02.742Z,3.20
2023-08-17T01:29:29.503Z,3.00
2023-08-17T01:32:13.960Z,2.95
2023-08-17T01:34:51.121Z,3.22
2023-08-17T01:37:21.919Z,2.50
2023-08-17T01:39:51.841Z,2.70
2023-08-17T01:42:19.558Z,2.30
2023-08-17T01:44:46.239Z,2.15
2023-08-17T01:47:15.734Z,2.17
2023-08-17T01:49:42.225Z,2.90
2023-08-17T01:52:08.744Z,2.80
2023-08-17T01:54:35.418Z,3.10
2023-08-17T01:57:01.904Z,3.47
2023-08-17T01:59:28.490Z,3.30
2023-08-17T02:01:55.093Z,3.17
2023-08-17T02:04:21.619Z,3.40
2023-08-17T02:06:48.221Z,2.90
2023-08-17T02:09:14.890Z,3.28
2023-08-17T02:11:41.415Z,3.70
2023-08-17T02:14:08.045Z,4.10
2023-08-17T02:16:35.444Z,2.88
2023-08-17T02:19:02.100Z,2.70
2023-08-17T02:21:28.631Z,2.85
2023-08-17T02:23:55.157Z,3.03
2023-08-17T02:26:23.123Z,2.95
2023-08-17T02:28:50.742Z,2.90
2023-08-17T02:31:17.272Z,3.08
2023-08-17T02:33:43.961Z,2.65
2023-08-17T02:36:10.511Z,2.40
2023-08-17T02:38:37.097Z,2.70
2023-08-17T02:41:03.712Z,2.85
2023-08-17T02:43:30.176Z,2.58
2023-08-17T02:45:56.671Z,3.17
2023-08-17T02:48:24.323Z,3.28
2023-08-17T02:50:50.794Z,2.95
2023-08-17T02:53:17.435Z,3.15
2023-08-17T02:55:44.018Z,3.80
2023-08-17T02:58:10.545Z,3.92
2023-08-17T03:00:37.099Z,3.45
2023-08-17T03:03:04.098Z,2.65
2023-08-17T03:05:31.809Z,2.90
2023-08-17T03:07:58.376Z,3.45
2023-08-17T03:10:26.123Z,3.85
2023-08-17T03:12:52.738Z,3.28
2023-08-17T03:15:20.128Z,3.78
2023-08-17T03:17:46.863Z,3.92
2023-08-17T03:20:13.793Z,3.30
2023-08-17T03:22:40.543Z,3.08
2023-08-17T03:25:07.607Z,3.75
2023-08-17T03:27:34.308Z,3.63
2023-08-17T03:30:01.363Z,2.80
2023-08-17T03:32:28.179Z,3.05
2023-08-17T03:34:54.673Z,3.00
2023-08-17T03:37:23.016Z,3.00
2023-08-17T03:39:49.933Z,2.63
2023-08-17T03:42:16.508Z,3.17
2023-08-17T03:44:43.168Z,3.08
2023-08-17T03:47:09.631Z,3.50
2023-08-17T03:49:36.209Z,3.45
2023-08-17T03:52:02.750Z,3.75
2023-08-17T03:54:29.345Z,2.90
2023-08-17T03:56:55.851Z,2.90
2023-08-17T03:59:22.401Z,2.75
2023-08-17T04:01:48.961Z,3.03
2023-08-17T04:04:15.651Z,3.30
2023-08-17T04:06:42.182Z,3.72
2023-08-17T04:09:08.919Z,3.28
2023-08-17T04:11:38.560Z,3.00
2023-08-17T04:14:06.137Z,3.00
2023-08-17T04:16:34.690Z,2.70
2023-08-17T04:19:01.339Z,2.58
2023-08-17T04:21:30.184Z,2.80
2023-08-17T04:23:56.975Z,2.50
2023-08-17T04:26:24.808Z,2.40
2023-08-17T04:28:52.071Z,2.55
2023-08-17T04:31:18.772Z,3.90
2023-08-17T04:33:49.303Z,4.10
2023-08-17T04:36:15.922Z,3.15
2023-08-17T04:38:42.406Z,3.53
2023-08-17T04:41:09.033Z,2.97
2023-08-17T04:43:36.554Z,3.38
2023-08-17T04:46:03.211Z,3.38
2023-08-17T04:48:30.258Z,3.05
2023-08-17T04:50:57.279Z,3.10
2023-08-17T04:53:23.812Z,3.33
2023-08-17T04:55:51.573Z,2.70
2023-08-17T04:58:18.064Z,2.90
2023-08-17T05:00:44.765Z,2.17
2023-08-17T05:03:20.144Z,2.58
2023-08-17T05:05:53.236Z,2.70
2023-08-17T05:08:20.335Z,3.15
2023-08-17T05:10:46.831Z,3.40
2023-08-17T05:13:13.336Z,3.42
2023-08-17T05:15:40.039Z,3.55
2023-08-17T05:18:09.197Z,3.45
2023-08-17T05:20:36.909Z,3.67
2023-08-17T05:23:04.125Z,3.53
2023-08-17T05:25:30.656Z,3.88
2023-08-17T05:27:57.165Z,4.22
2023-08-17T05:30:24.088Z,4.00
2023-08-17T05:32:51.659Z,3.78
2023-08-17T05:35:18.848Z,3.53
2023-08-17T05:37:45.486Z,4.40
2023-08-17T05:40:12.404Z,4.07
2023-08-17T05:42:38.980Z,4.38
2023-08-17T05:45:06.247Z,3.90
2023-08-17T05:47:32.776Z,3.30
2023-08-17T05:49:59.261Z,3.58
2023-08-17T05:52:25.833Z,3.88
2023-08-17T05:54:52.286Z,3.28
2023-08-17T05:57:18.781Z,3.55
2023-08-17T05:59:45.266Z,3.90
2023-08-17T06:02:11.759Z,2.97
2023-08-17T06:04:38.258Z,3.17
2023-08-17T06:07:04.917Z,3.25
2023-08-17T06:09:31.411Z,3.20
2023-08-17T06:11:57.943Z,3.10
2023-08-17T06:14:24.521Z,3.10
2023-08-17T06:16:51.119Z,2.70
2023-08-17T06:19:17.621Z,2.60
2023-08-17T06:21:44.211Z,2.92
2023-08-17T06:24:10.668Z,2.42
2023-08-17T06:26:37.248Z,2.60
2023-08-17T06:29:04.547Z,3.25
2023-08-17T06:31:31.293Z,2.67
2023-08-17T06:33:58.161Z,2.72
2023-08-17T06:36:24.722Z,3.35
2023-08-17T06:38:51.227Z,3.22
2023-08-17T06:41:18.238Z,3.05
2023-08-17T06:43:44.718Z,3.22
2023-08-17T06:46:11.470Z,3.00
2023-08-17T06:48:38.069Z,2.78
2023-08-17T06:51:05.842Z,3.20
2023-08-17T06:53:32.390Z,3.00
2023-08-17T06:56:01.710Z,3.20
2023-08-17T06:58:29.353Z,3.80
2023-08-17T07:00:56.036Z,3.10
2023-08-17T07:03:22.662Z,3.40
2023-08-17T07:05:49.386Z,3.70
2023-08-17T07:08:15.996Z,4.05
2023-08-17T07:10:42.441Z,4.25
2023-08-17T07:13:09.013Z,4.60
2023-08-17T07:15:35.542Z,3.45
2023-08-17T07:18:02.110Z,3.72
2023-08-17T07:20:28.737Z,4.53
2023-08-17T07:22:55.345Z,4.03
2023-08-17T07:25:21.793Z,4.88
2023-08-17T07:27:48.269Z,4.57
2023-08-17T07:30:14.771Z,4.65
2023-08-17T07:32:41.311Z,5.70
2023-08-17T07:35:08.221Z,5.40
2023-08-17T07:37:35.198Z,6.10
2023-08-17T07:40:04.711Z,5.15
2023-08-17T07:42:31.597Z,5.40
2023-08-17T07:44:58.388Z,6.25
2023-08-17T07:47:24.983Z,5.32
2023-08-17T07:49:51.596Z,5.57
2023-08-17T07:52:18.195Z,5.75
2023-08-17T07:54:46.620Z,5.70
2023-08-17T07:57:13.255Z,5.50
2023-08-17T07:59:39.907Z,6.20
2023-08-17T08:02:06.950Z,6.75
2023-08-17T08:04:33.471Z,6.10
2023-08-17T08:07:00.035Z,6.63
2023-08-17T08:09:26.496Z,6.18
2023-08-17T08:11:53.052Z,5.40
2023-08-17T08:14:19.534Z,6.43
2023-08-17T08:16:46.254Z,5.97
2023-08-17T08:19:12.858Z,7.05
2023-08-17T08:21:39.476Z,7.30
2023-08-17T08:24:10.424Z,6.32
2023-08-17T08:26:40.714Z,6.78
2023-08-17T08:29:07.236Z,7.60
2023-08-17T08:31:33.708Z,7.05
2023-08-17T08:34:00.590Z,6.45
2023-08-17T08:36:27.229Z,6.53
2023-08-17T08:38:53.853Z,5.40
2023-08-17T08:41:20.835Z,6.90
2023-08-17T08:43:47.998Z,6.32
2023-08-17T08:46:17.910Z,6.40
2023-08-17T08:48:48.672Z,6.00
2023-08-17T08:51:21.733Z,6.22
2023-08-17T08:53:56.466Z,5.22
2023-08-17T08:56:25.670Z,5.82
2023-08-17T08:58:54.919Z,5.65
2023-08-17T09:01:22.634Z,5.88
2023-08-17T09:03:49.305Z,6.57
2023-08-17T09:09:03.685Z,6.50
2023-08-17T09:11:31.139Z,5.60
2023-08-17T09:13:57.981Z,5.22
2023-08-17T09:16:25.840Z,5.10
2023-08-17T09:18:55.554Z,4.85
2023-08-17T09:21:25.640Z,5.40
2023-08-17T09:24:00.123Z,5.38
2023-08-17T09:26:32.166Z,5.07
2023-08-17T09:29:00.588Z,6.13
2023-08-17T09:31:27.391Z,4.60
2023-08-17T09:33:54.352Z,5.93
2023-08-17T09:36:24.833Z,6.50
2023-08-17T09:38:54.283Z,5.07
2023-08-17T09:41:21.196Z,6.60
2023-08-17T09:43:48.366Z,4.63
2023-08-17T09:46:15.875Z,5.53
2023-08-17T09:48:45.405Z,5.05
2023-08-17T09:51:15.554Z,5.25
2023-08-17T09:53:42.122Z,6.30
2023-08-17T09:56:09.275Z,5.10
2023-08-17T09:58:35.721Z,5.90
2023-08-17T10:01:05.465Z,6.45
2023-08-17T10:03:35.323Z,5.45
2023-08-17T10:06:11.548Z,6.60
2023-08-17T10:08:44.359Z,6.65
2023-08-17T10:11:15.914Z,6.20
2023-08-17T10:14:01.319Z,4.97
2023-08-17T10:16:34.425Z,8.00
2023-08-17T10:19:14.411Z,6.85
2023-08-17T10:21:55.139Z,6.55
2023-08-17T10:24:21.637Z,6.03
2023-08-17T10:29:23.728Z,5.70
2023-08-17T10:31:50.427Z,6.68
2023-08-17T10:34:17.265Z,6.57
2023-08-17T10:36:45.457Z,6.60
2023-08-17T10:39:26.027Z,5.65
2023-08-17T10:41:55.750Z,6.93
2023-08-17T10:44:48.103Z,5.70
2023-08-17T10:47:28.382Z,6.57
2023-08-17T10:50:06.516Z,5.90
2023-08-17T10:52:35.659Z,7.20
2023-08-17T10:55:06.812Z,6.22
2023-08-17T10:57:41.949Z,8.05
2023-08-17T11:00:20.965Z,6.63
2023-08-17T11:03:01.022Z,6.45
2023-08-17T11:05:42.074Z,6.63
2023-08-17T11:08:21.164Z,6.10
2023-08-17T11:11:13.518Z,5.63
2023-08-17T11:13:45.309Z,5.80
2023-08-17T11:16:18.747Z,5.60
2023-08-17T11:18:46.589Z,4.78
2023-08-17T11:21:19.371Z,5.35
2023-08-17T11:23:46.817Z,5.78
2023-08-17T11:26:16.829Z,4.80
2023-08-17T11:28:45.624Z,4.78
2023-08-17T11:31:14.015Z,4.57
2023-08-17T11:33:41.200Z,4.40
2023-08-17T11:36:11.080Z,4.72
2023-08-17T11:38:44.535Z,4.97
2023-08-17T11:41:18.517Z,4.15
2023-08-17T11:43:48.116Z,4.47
2023-08-17T11:46:16.277Z,4.63
2023-08-17T11:48:42.935Z,5.15
2023-08-17T11:51:09.590Z,4.80
2023-08-17T11:53:38.112Z,4.25
2023-08-17T11:56:08.391Z,4.80
2023-08-17T11:58:47.484Z,4.72
2023-08-17T12:01:16.705Z,4.68
2023-08-17T12:03:44.198Z,5.00
2023-08-17T12:06:11.814Z,5.30
2023-08-17T12:08:38.470Z,5.50
2023-08-17T12:11:05.729Z,5.00
2023-08-17T12:13:35.670Z,5.35
2023-08-17T12:16:04.742Z,5.80
2023-08-17T12:18:35.346Z,5.82
2023-08-17T12:21:02.019Z,5.22
2023-08-17T12:23:29.131Z,5.25
2023-08-17T12:25:56.282Z,5.20
2023-08-17T12:28:26.534Z,4.80
2023-08-17T12:31:01.772Z,5.95
2023-08-17T12:33:28.557Z,5.63
2023-08-17T12:35:56.439Z,5.82
2023-08-17T12:38:26.009Z,5.90
2023-08-17T12:40:52.528Z,5.55
2023-08-17T12:43:19.011Z,6.03
2023-08-17T12:45:45.491Z,5.82
2023-08-17T12:48:12.114Z,5.82
2023-08-17T12:50:43.411Z,5.43
2023-08-17T12:53:10.422Z,6.05
2023-08-17T12:55:36.955Z,5.55
2023-08-17T12:58:03.572Z,5.47
2023-08-17T13:00:30.206Z,5.20
2023-08-17T13:02:56.696Z,5.93
2023-08-17T13:05:23.384Z,5.68
2023-08-17T13:07:49.880Z,5.50
2023-08-17T13:10:16.374Z,6.05
2023-08-17T13:12:42.837Z,5.18
2023-08-17T13:15:09.431Z,5.35
2023-08-17T13:17:35.911Z,6.28
2023-08-17T13:20:04.915Z,5.57
2023-08-17T13:22:32.445Z,6.25
2023-08-17T13:24:58.988Z,6.50
2023-08-17T13:27:25.615Z,6.80
2023-08-17T13:29:52.212Z,6.88
2023-08-17T13:32:18.631Z,6.72
2023-08-17T13:34:45.176Z,6.75
2023-08-17T13:37:11.653Z,6.32
2023-08-17T13:39:38.209Z,6.88
2023-08-17T13:42:04.937Z,6.30
2023-08-17T13:44:31.559Z,6.05
2023-08-17T13:46:58.013Z,6.72
2023-08-17T13:49:24.766Z,6.50
2023-08-17T13:51:51.293Z,6.30
2023-08-17T13:54:18.362Z,6.60
2023-08-17T13:56:44.843Z,5.97
2023-08-17T13:59:11.461Z,5.88
2023-08-17T14:01:37.955Z,6.50
2023-08-17T14:04:05.975Z,6.15
2023-08-17T14:06:33.575Z,5.78
2023-08-17T14:09:00.193Z,6.22
2023-08-17T14:11:26.663Z,6.43
2023-08-17T14:13:53.164Z,6.10
2023-08-17T14:16:19.721Z,6.07
2023-08-17T14:18:46.241Z,6.57
2023-08-17T14:21:12.676Z,6.68
2023-08-17T14:23:39.961Z,6.85
2023-08-17T14:26:06.474Z,6.15
2023-08-17T14:28:33.192Z,6.55
2023-08-17T14:30:59.734Z,6.20
2023-08-17T14:33:26.202Z,6.40
2023-08-17T14:35:52.780Z,6.20
2023-08-17T14:38:19.278Z,5.97
2023-08-17T14:40:49.073Z,5.95
2023-08-17T14:43:16.413Z,5.88
2023-08-17T14:45:44.357Z,6.15
2023-08-17T14:48:11.237Z,5.60
2023-08-17T14:50:38.378Z,5.90
2023-08-17T14:53:08.749Z,5.65
2023-08-17T14:55:35.813Z,5.68
2023-08-17T14:58:04.138Z,5.65
2023-08-17T15:00:33.753Z,5.55
2023-08-17T15:03:01.413Z,5.28
2023-08-17T15:05:29.610Z,5.50
2023-08-17T15:07:56.569Z,5.03
2023-08-17T15:10:23.377Z,5.18
2023-08-17T15:12:50.115Z,5.20
2023-08-17T15:15:20.641Z,5.78
2023-08-17T15:17:47.610Z,5.28
2023-08-17T15:20:14.438Z,5.82
2023-08-17T15:22:41.040Z,5.50
2023-08-17T15:25:07.850Z,5.30
2023-08-17T15:27:34.384Z,4.82
2023-08-17T15:30:00.981Z,5.13
2023-08-17T15:32:27.751Z,5.05
2023-08-17T15:34:56.896Z,4.93
2023-08-17T15:37:26.599Z,4.60
2023-08-17T15:39:53.618Z,4.55
2023-08-17T15:42:20.077Z,4.75
2023-08-17T15:44:46.596Z,4.80
2023-08-17T15:47:13.057Z,4.88
2023-08-17T15:49:39.632Z,4.55
2023-08-17T15:52:07.276Z,4.88
2023-08-17T15:54:36.755Z,4.97
2023-08-17T15:57:05.438Z,4.35
2023-08-17T15:59:32.108Z,4.55
2023-08-17T16:01:58.685Z,4.68
2023-08-17T16:04:25.157Z,4.60
2023-08-17T16:06:51.750Z,4.60
2023-08-17T16:09:18.409Z,4.70
2023-08-17T16:11:44.899Z,4.50
2023-08-17T16:14:11.552Z,4.25
2023-08-17T16:16:38.072Z,4.50
2023-08-17T16:19:05.720Z,4.05
2023-08-17T16:21:32.470Z,3.88
2023-08-17T16:23:58.948Z,4.22
2023-08-17T16:26:25.447Z,3.95
2023-08-17T16:28:53.375Z,3.90
2023-08-17T16:31:20.193Z,4.05
2023-08-17T16:33:47.066Z,4.10
2023-08-17T16:36:14.785Z,3.50
2023-08-17T16:38:41.333Z,3.65
2023-08-17T16:41:08.851Z,3.78
2023-08-17T16:43:36.405Z,3.97
2023-08-17T16:46:03.028Z,3.80
2023-08-17T16:48:29.569Z,3.70
2023-08-17T16:50:56.147Z,3.35
2023-08-17T16:53:22.631Z,3.78
2023-08-17T16:55:55.079Z,4.50
2023-08-17T16:58:22.241Z,3.88
2023-08-17T17:00:49.934Z,4.20
2023-08-17T17:03:16.433Z,3.90
2023-08-17T17:05:42.952Z,3.83
2023-08-17T17:08:09.550Z,4.18
2023-08-17T17:10:36.312Z,3.95
2023-08-17T17:13:02.850Z,4.03
2023-08-17T17:15:29.432Z,4.00
2023-08-17T17:17:55.992Z,4.28
2023-08-17T17:20:22.472Z,4.15
2023-08-17T17:22:49.136Z,3.88
2023-08-17T17:25:15.684Z,4.00
2023-08-17T17:27:42.167Z,4.55
2023-08-17T17:30:09.174Z,4.00
2023-08-17T17:32:35.704Z,4.10
2023-08-17T17:35:02.254Z,3.72
2023-08-17T17:37:29.161Z,4.28
2023-08-17T17:39:56.438Z,4.18
2023-08-17T17:42:23.221Z,4.60
2023-08-17T17:44:49.746Z,4.63
2023-08-17T17:47:16.282Z,3.97
2023-08-17T17:49:42.815Z,4.43
2023-08-17T17:52:09.303Z,4.47
2023-08-17T17:54:38.400Z,4.40
2023-08-17T17:57:05.474Z,3.95
2023-08-17T17:59:32.059Z,4.43
2023-08-17T18:01:58.712Z,4.28
2023-08-17T18:04:26.061Z,4.50
2023-08-17T18:06:52.608Z,4.40
2023-08-17T18:09:19.177Z,4.15
2023-08-17T18:11:45.679Z,4.53
2023-08-17T18:14:12.179Z,3.90
2023-08-17T18:16:38.667Z,4.10
2023-08-17T18:19:07.226Z,3.92
2023-08-17T18:21:33.717Z,4.00
2023-08-17T18:24:00.519Z,4.00
2023-08-17T18:26:27.972Z,4.00
2023-08-17T18:28:56.587Z,3.88
2023-08-17T18:31:23.181Z,3.70
2023-08-17T18:33:49.742Z,4.30
2023-08-17T18:36:16.706Z,3.90
2023-08-17T18:38:43.295Z,3.88
2023-08-17T18:41:10.673Z,4.00
2023-08-17T18:43:37.690Z,4.10
2023-08-17T18:46:04.900Z,3.88
2023-08-17T18:48:32.093Z,4.43
2023-08-17T18:50:58.843Z,4.28
2023-08-17T18:53:25.635Z,4.30
2023-08-17T18:55:52.325Z,4.47
2023-08-17T18:58:19.799Z,4.00
2023-08-17T19:00:46.534Z,4.38
2023-08-17T19:03:13.149Z,4.10
2023-08-17T19:05:40.466Z,4.10
2023-08-17T19:08:07.131Z,4.13
2023-08-17T19:10:33.687Z,4.72
2023-08-17T19:13:00.329Z,4.70
2023-08-17T19:15:27.017Z,5.03
2023-08-17T19:17:53.541Z,4.90
2023-08-17T19:20:21.217Z,5.05
2023-08-17T19:22:47.815Z,5.22
2023-08-17T19:25:14.480Z,5.22
2023-08-17T19:27:41.452Z,4.78
2023-08-17T19:30:11.509Z,5.22
2023-08-17T19:32:43.921Z,4.82
2023-08-17T19:35:10.950Z,4.95
2023-08-17T19:37:38.291Z,5.63
2023-08-17T19:40:05.505Z,4.60
2023-08-17T19:42:32.105Z,4.97
2023-08-17T19:44:58.857Z,5.05
2023-08-17T19:47:25.469Z,5.10
2023-08-17T19:49:52.193Z,5.35
2023-08-17T19:52:20.977Z,5.20
2023-08-17T19:54:52.716Z,5.47
2023-08-17T19:57:22.021Z,5.28
2023-08-17T19:59:48.832Z,5.57
2023-08-17T20:02:15.418Z,5.30
2023-08-17T20:04:42.121Z,5.30
2023-08-17T20:07:08.737Z,5.22
2023-08-17T20:09:35.277Z,5.45
2023-08-17T20:12:02.598Z,5.43
2023-08-17T20:14:30.255Z,5.05
2023-08-17T20:16:57.012Z,5.75
2023-08-17T20:19:23.597Z,5.32
2023-08-17T20:21:50.146Z,5.50
2023-08-17T20:24:16.717Z,5.90
2023-08-17T20:26:43.347Z,6.05
2023-08-17T20:29:12.188Z,5.30
2023-08-17T20:31:39.477Z,5.55
2023-08-17T20:34:06.114Z,5.63
2023-08-17T20:36:32.748Z,6.32
2023-08-17T20:39:07.777Z,6.13
2023-08-17T20:41:34.329Z,5.13
2023-08-17T20:44:00.816Z,5.57
2023-08-17T20:46:28.822Z,5.95
2023-08-17T20:48:58.693Z,5.80
2023-08-17T20:51:26.780Z,5.57
2023-08-17T20:53:54.235Z,5.53
2023-08-17T20:56:21.783Z,6.65
2023-08-17T20:58:48.562Z,5.50
2023-08-17T21:01:17.324Z,5.75
2023-08-17T21:03:44.451Z,5.82
2023-08-17T21:06:11.185Z,5.70
2023-08-17T21:08:37.848Z,5.35
2023-08-17T21:11:05.796Z,6.10
2023-08-17T21:13:36.303Z,5.70
2023-08-17T21:16:12.181Z,5.13
2023-08-17T21:18:38.768Z,5.63
2023-08-17T21:21:05.261Z,5.97
2023-08-17T21:23:32.246Z,5.85
2023-08-17T21:26:02.161Z,5.13
2023-08-17T21:28:29.794Z,5.30
2023-08-17T21:31:03.857Z,5.07
2023-08-17T21:33:31.104Z,5.50
2023-08-17T21:35:58.913Z,6.00
2023-08-17T21:38:25.867Z,5.63
2023-08-17T21:40:59.683Z,5.50
2023-08-17T21:43:26.859Z,5.78
2023-08-17T21:45:57.589Z,5.55
2023-08-17T21:48:24.340Z,5.50
2023-08-17T21:50:51.130Z,5.78
2023-08-17T21:53:21.283Z,5.65
2023-08-17T21:55:49.090Z,5.85
2023-08-17T21:58:16.101Z,6.20
2023-08-17T22:00:43.442Z,5.72
2023-08-17T22:03:11.218Z,6.03
2023-08-17T22:05:38.275Z,5.93
2023-08-17T22:08:05.409Z,6.25
2023-08-17T22:10:32.223Z,6.00
2023-08-17T22:12:59.764Z,5.50
2023-08-17T22:15:26.575Z,5.20
2023-08-17T22:17:53.172Z,5.10
2023-08-17T22:20:19.995Z,5.40
2023-08-17T22:22:46.768Z,5.20
2023-08-17T22:25:13.285Z,5.80
2023-08-17T22:27:40.061Z,5.32
2023-08-17T22:30:07.193Z,5.18
2023-08-17T22:32:33.768Z,5.25
2023-08-17T22:35:00.394Z,5.40
2023-08-17T22:37:27.112Z,5.45
2023-08-17T22:39:53.854Z,5.55
2023-08-17T22:42:20.375Z,5.82
2023-08-17T22:44:48.067Z,6.57
2023-08-17T22:47:14.592Z,6.07
2023-08-17T22:49:41.087Z,6.15
2023-08-17T22:52:07.582Z,5.22
2023-08-17T22:54:34.224Z,6.05
2023-08-17T22:57:03.081Z,6.60
2023-08-17T22:59:29.594Z,6.38
2023-08-17T23:01:56.212Z,6.40
2023-08-17T23:04:22.784Z,7.10
2023-08-17T23:06:49.613Z,6.80
2023-08-17T23:09:16.106Z,7.50
2023-08-17T23:11:42.746Z,9.50
2023-08-17T23:14:09.198Z,7.72
2023-08-17T23:16:35.710Z,7.43
2023-08-17T23:19:02.234Z,7.63
2023-08-17T23:21:28.708Z,7.47
2023-08-17T23:23:55.194Z,6.70
2023-08-17T23:26:22.441Z,7.90
2023-08-17T23:28:49.041Z,8.15
2023-08-17T23:31:15.644Z,6.75
2023-08-17T23:33:42.128Z,6.60
2023-08-17T23:36:08.724Z,7.10
2023-08-17T23:38:35.235Z,7.63
2023-08-17T23:41:01.868Z,7.40
2023-08-17T23:43:28.338Z,7.38
2023-08-17T23:45:54.873Z,6.90
2023-08-17T23:48:21.395Z,7.65
2023-08-17T23:50:47.928Z,7.18
2023-08-17T23:53:14.448Z,6.82
2023-08-17T23:55:40.992Z,6.65
2023-08-17T23:58:07.454Z,6.03
